createdAt,value
2019-04-26T00:01:33.118Z,12.60
2019-04-26T00:04:03.708Z,13.40
2019-04-26T00:06:34.087Z,12.73
2019-04-26T00:09:24.077Z,13.88
2019-04-26T00:12:14.454Z,13.43
2019-04-26T00:15:06.933Z,14.53
2019-04-26T00:17:42.562Z,13.45
2019-04-26T00:20:12.996Z,12.77
2019-04-26T00:22:43.745Z,13.75
2019-04-26T00:25:16.514Z,13.50
2019-04-26T00:27:47.018Z,12.45
2019-04-26T00:30:19.145Z,12.47
2019-04-26T00:32:49.687Z,13.17
2019-04-26T00:35:20.083Z,13.97
2019-04-26T00:37:51.980Z,14.03
2019-04-26T00:40:24.179Z,14.17
2019-04-26T00:42:57.600Z,14.30
2019-04-26T00:45:31.447Z,14.87
2019-04-26T00:48:03.101Z,13.80
2019-04-26T00:50:35.152Z,17.53
2019-04-26T00:53:06.688Z,15.97
2019-04-26T00:55:37.450Z,13.90
2019-04-26T00:58:08.627Z,15.47
2019-04-26T01:00:39.185Z,14.07
2019-04-26T01:03:09.742Z,15.90
2019-04-26T01:05:41.674Z,15.20
2019-04-26T01:08:12.075Z,17.90
2019-04-26T01:10:42.537Z,17.27
2019-04-26T01:13:12.932Z,21.40
2019-04-26T01:15:43.480Z,21.70
2019-04-26T01:18:13.960Z,22.57
2019-04-26T01:20:46.118Z,24.23
2019-04-26T01:23:19.409Z,27.10
2019-04-26T01:26:03.158Z,27.77
2019-04-26T01:28:45.373Z,27.00
2019-04-26T01:31:18.517Z,25.30
2019-04-26T01:33:49.170Z,28.20
2019-04-26T01:36:20.473Z,24.63
2019-04-26T01:38:54.081Z,21.43
2019-04-26T01:41:34.474Z,19.07
2019-04-26T01:44:10.906Z,18.57
2019-04-26T01:46:44.890Z,18.43
2019-04-26T01:49:17.870Z,18.10
2019-04-26T01:51:58.617Z,17.00
2019-04-26T01:54:33.477Z,15.37
2019-04-26T01:57:05.672Z,17.20
2019-04-26T01:59:40.542Z,17.23
2019-04-26T02:02:30.066Z,15.83
2019-04-26T02:05:05.684Z,15.37
2019-04-26T02:07:40.016Z,17.03
2019-04-26T02:10:16.463Z,16.53
2019-04-26T02:12:49.472Z,18.10
2019-04-26T02:15:24.492Z,19.83
2019-04-26T02:17:57.534Z,16.93
2019-04-26T02:21:06.679Z,17.00
2019-04-26T02:23:43.050Z,14.90
2019-04-26T02:26:32.962Z,18.63
2019-04-26T02:29:06.738Z,16.87
2019-04-26T02:31:38.324Z,16.73
2019-04-26T02:34:10.114Z,17.87
2019-04-26T02:36:56.292Z,14.63
2019-04-26T02:39:26.326Z,16.73
2019-04-26T02:42:01.338Z,16.30
2019-04-26T02:44:42.199Z,16.30
2019-04-26T02:47:51.934Z,18.17
2019-04-26T02:50:40.223Z,16.67
2019-04-26T02:54:12.988Z,18.90
2019-04-26T02:56:46.647Z,18.87
2019-04-26T02:59:43.731Z,17.67
2019-04-26T03:02:24.529Z,19.20
2019-04-26T03:05:08.591Z,18.63
2019-04-26T03:08:09.646Z,18.57
2019-04-26T03:11:07.261Z,17.13
2019-04-26T03:13:52.233Z,18.70
2019-04-26T03:16:41.298Z,15.60
2019-04-26T03:19:34.109Z,17.17
2019-04-26T03:22:19.400Z,16.70
2019-04-26T03:25:10.505Z,16.73
2019-04-26T03:27:58.065Z,17.40
2019-04-26T03:30:46.058Z,18.17
2019-04-26T03:33:54.419Z,18.03
2019-04-26T03:36:49.589Z,15.97
2019-04-26T03:39:29.884Z,18.70
2019-04-26T03:42:53.184Z,18.50
2019-04-26T03:45:46.656Z,18.40
2019-04-26T03:48:27.106Z,16.87
2019-04-26T03:51:06.204Z,18.23
2019-04-26T03:53:56.345Z,17.67
2019-04-26T03:57:03.731Z,18.33
2019-04-26T04:00:12.646Z,17.73
2019-04-26T04:03:05.330Z,18.50
2019-04-26T04:05:45.599Z,18.03
2019-04-26T04:08:22.057Z,17.60
2019-04-26T04:10:59.653Z,18.73
2019-04-26T04:13:58.842Z,19.13
2019-04-26T04:16:49.498Z,19.17
2019-04-26T04:20:14.840Z,19.50
2019-04-26T04:22:49.359Z,19.37
2019-04-26T04:25:26.260Z,18.27
2019-04-26T04:28:06.960Z,17.30
2019-04-26T04:31:05.320Z,18.93
2019-04-26T04:33:52.640Z,16.63
2019-04-26T04:36:50.602Z,17.70
2019-04-26T04:39:40.842Z,17.98
2019-04-26T04:42:43.560Z,15.70
2019-04-26T04:46:05.036Z,19.12
2019-04-26T04:49:18.359Z,16.47
2019-04-26T04:52:24.604Z,16.90
2019-04-26T04:55:07.060Z,16.07
2019-04-26T04:57:48.101Z,17.75
2019-04-26T05:00:45.100Z,15.68
2019-04-26T05:03:28.043Z,17.92
2019-04-26T05:06:16.421Z,20.08
2019-04-26T05:09:29.514Z,16.05
2019-04-26T05:12:06.555Z,15.90
2019-04-26T05:15:00.738Z,15.60
2019-04-26T05:17:56.546Z,17.82
2019-04-26T05:21:07.600Z,15.88
2019-04-26T05:24:07.294Z,15.63
2019-04-26T05:27:16.474Z,17.00
2019-04-26T05:30:46.490Z,16.40
2019-04-26T05:33:26.942Z,17.52
2019-04-26T05:36:26.370Z,16.77
2019-04-26T05:39:08.664Z,18.25
2019-04-26T05:42:26.835Z,19.00
2019-04-26T05:45:34.600Z,15.23
2019-04-26T05:48:38.224Z,18.20
2019-04-26T05:51:53.626Z,16.77
2019-04-26T05:55:17.017Z,17.37
2019-04-26T05:58:06.566Z,15.30
2019-04-26T06:01:52.103Z,17.60
2019-04-26T06:04:53.420Z,18.17
2019-04-26T06:07:52.246Z,16.20
2019-04-26T06:10:41.674Z,23.00
2019-04-26T06:14:04.290Z,17.12
2019-04-26T06:17:09.320Z,17.00
2019-04-26T06:20:00.674Z,16.62
2019-04-26T06:22:53.644Z,15.85
2019-04-26T06:25:40.750Z,16.20
2019-04-26T06:28:37.587Z,15.93
2019-04-26T06:31:46.656Z,17.17
2019-04-26T06:34:55.091Z,15.03
2019-04-26T06:37:41.216Z,17.12
2019-04-26T06:40:28.560Z,15.85
2019-04-26T06:43:22.719Z,17.75
2019-04-26T06:46:49.555Z,13.72
2019-04-26T06:49:53.915Z,17.27
2019-04-26T06:52:27.498Z,16.80
2019-04-26T06:55:32.260Z,14.13
2019-04-26T06:58:17.330Z,15.58
2019-04-26T07:01:05.747Z,16.62
2019-04-26T07:04:07.384Z,15.38
2019-04-26T07:06:44.905Z,12.43
2019-04-26T07:09:18.423Z,14.25
2019-04-26T07:12:26.585Z,15.63
2019-04-26T07:15:40.745Z,13.05
2019-04-26T07:18:46.853Z,13.53
2019-04-26T07:21:45.638Z,12.88
2019-04-26T07:24:47.816Z,11.90
2019-04-26T07:28:09.697Z,13.45
2019-04-26T07:30:56.827Z,12.15
2019-04-26T07:33:48.595Z,12.58
2019-04-26T07:37:03.180Z,12.07
2019-04-26T07:40:32.031Z,11.90
2019-04-26T07:43:48.687Z,12.55
2019-04-26T07:46:43.973Z,10.63
2019-04-26T07:50:05.031Z,12.00
2019-04-26T07:53:38.327Z,13.30
2019-04-26T07:56:22.413Z,12.47
2019-04-26T07:59:32.220Z,10.60
2019-04-26T08:02:51.411Z,12.80
2019-04-26T08:05:39.837Z,11.30
2019-04-26T08:08:13.338Z,11.97
2019-04-26T08:10:52.304Z,10.45
2019-04-26T08:13:24.854Z,10.45
2019-04-26T08:16:14.880Z,10.72
2019-04-26T08:18:52.479Z,11.75
2019-04-26T08:21:31.518Z,9.80
2019-04-26T08:24:22.641Z,11.55
2019-04-26T08:27:13.665Z,10.38
2019-04-26T08:29:42.786Z,8.65
2019-04-26T08:32:22.463Z,10.45
2019-04-26T08:35:08.151Z,8.70
2019-04-26T08:37:48.863Z,9.53
2019-04-26T08:40:30.087Z,11.55
2019-04-26T08:43:08.664Z,11.18
2019-04-26T08:46:04.771Z,10.30
2019-04-26T08:48:51.649Z,11.05
2019-04-26T08:51:23.718Z,17.10
2019-04-26T08:53:56.321Z,12.40
2019-04-26T08:56:32.663Z,8.40
2019-04-26T08:59:09.652Z,8.90
2019-04-26T09:01:56.958Z,9.20
2019-04-26T09:04:45.669Z,10.45
2019-04-26T09:07:21.939Z,7.28
2019-04-26T09:09:57.337Z,8.33
2019-04-26T09:12:30.013Z,8.50
2019-04-26T09:15:06.091Z,9.05
2019-04-26T09:17:36.730Z,11.28
2019-04-26T09:20:09.579Z,9.50
2019-04-26T09:22:51.813Z,5.95
2019-04-26T09:25:44.803Z,9.18
2019-04-26T09:28:33.050Z,28.67
2019-04-26T09:31:25.449Z,10.45
2019-04-26T09:34:01.303Z,8.85
2019-04-26T09:36:32.115Z,7.75
2019-04-26T09:39:03.961Z,8.50
2019-04-26T09:41:36.770Z,8.20
2019-04-26T09:44:18.601Z,8.43
2019-04-26T09:47:03.399Z,8.35
2019-04-26T09:50:05.049Z,8.45
2019-04-26T09:52:42.472Z,9.23
2019-04-26T09:55:12.852Z,6.47
2019-04-26T09:57:43.267Z,8.03
2019-04-26T10:00:16.819Z,7.97
2019-04-26T10:02:47.350Z,7.65
2019-04-26T10:05:22.438Z,8.73
2019-04-26T10:07:51.018Z,7.62
2019-04-26T10:10:23.229Z,6.72
2019-04-26T10:13:15.016Z,9.05
2019-04-26T10:16:02.920Z,8.50
2019-04-26T10:18:36.635Z,9.75
2019-04-26T10:21:06.987Z,8.58
2019-04-26T10:23:37.431Z,7.20
2019-04-26T10:26:08.713Z,7.65
2019-04-26T10:28:39.154Z,7.30
2019-04-26T10:31:09.508Z,7.58
2019-04-26T10:33:39.961Z,13.13
2019-04-26T10:36:10.935Z,12.23
2019-04-26T10:38:41.483Z,7.90
2019-04-26T10:41:13.826Z,8.45
2019-04-26T10:43:44.166Z,6.05
2019-04-26T10:46:16.666Z,4.17
2019-04-26T10:48:49.669Z,6.70
2019-04-26T10:51:25.052Z,5.80
2019-04-26T10:54:18.293Z,4.87
2019-04-26T10:57:03.056Z,4.37
2019-04-26T10:59:45.472Z,4.55
2019-04-26T11:02:19.057Z,4.85
2019-04-26T11:04:49.524Z,4.75
2019-04-26T11:07:19.993Z,5.22
2019-04-26T11:09:50.375Z,29.90
2019-04-26T11:12:20.917Z,6.75
2019-04-26T11:14:53.302Z,4.10
2019-04-26T11:17:23.295Z,4.50
2019-04-26T11:19:53.706Z,4.97
2019-04-26T11:22:29.274Z,6.37
2019-04-26T11:24:56.226Z,5.10
2019-04-26T11:27:26.633Z,5.53
2019-04-26T11:30:00.045Z,5.95
2019-04-26T11:32:33.217Z,6.35
2019-04-26T11:35:02.554Z,5.20
2019-04-26T11:37:34.301Z,7.15
2019-04-26T11:40:05.409Z,7.12
2019-04-26T11:42:35.905Z,6.35
2019-04-26T11:45:10.684Z,7.08
2019-04-26T11:47:54.212Z,5.35
2019-04-26T11:50:16.129Z,5.75
2019-04-26T11:52:46.949Z,6.08
2019-04-26T11:55:17.416Z,5.62
2019-04-26T11:57:49.114Z,6.20
2019-04-26T12:00:27.652Z,6.40
2019-04-26T12:02:58.437Z,5.25
2019-04-26T12:05:36.156Z,5.47
2019-04-26T12:08:09.627Z,5.60
2019-04-26T12:10:44.508Z,6.00
2019-04-26T12:13:12.762Z,5.65
2019-04-26T12:15:45.424Z,5.30
2019-04-26T12:18:16.164Z,4.72
2019-04-26T12:20:46.612Z,5.17
2019-04-26T12:23:20.841Z,5.72
2019-04-26T12:25:49.254Z,5.53
2019-04-26T12:28:19.681Z,5.53
2019-04-26T12:30:54.049Z,4.35
2019-04-26T12:33:23.066Z,4.58
2019-04-26T12:35:57.100Z,5.42
2019-04-26T12:38:28.487Z,4.12
2019-04-26T12:40:59.222Z,4.53
2019-04-26T12:43:29.639Z,4.37
2019-04-26T12:46:14.207Z,3.02
2019-04-26T12:48:46.044Z,4.45
2019-04-26T12:51:16.169Z,4.47
2019-04-26T12:53:46.666Z,3.98
2019-04-26T12:56:17.043Z,3.15
2019-04-26T12:58:49.988Z,4.12
2019-04-26T13:01:19.555Z,4.28
2019-04-26T13:04:04.632Z,3.40
2019-04-26T13:06:38.064Z,3.80
2019-04-26T13:09:13.785Z,4.37
2019-04-26T13:11:56.538Z,5.08
2019-04-26T13:14:57.511Z,4.95
2019-04-26T13:17:51.636Z,5.05
2019-04-26T13:20:24.362Z,5.00
2019-04-26T13:22:55.882Z,4.80
2019-04-26T13:25:39.870Z,5.55
2019-04-26T13:28:00.083Z,4.78
2019-04-26T13:30:33.066Z,5.45
2019-04-26T13:33:02.997Z,4.65
2019-04-26T13:35:33.497Z,5.67
2019-04-26T13:38:05.129Z,5.28
2019-04-26T13:40:36.551Z,4.95
2019-04-26T13:43:08.164Z,4.20
2019-04-26T13:45:56.201Z,4.28
2019-04-26T13:48:43.623Z,4.78
2019-04-26T13:51:14.249Z,6.72
2019-04-26T13:53:44.786Z,5.78
2019-04-26T13:56:15.170Z,5.03
2019-04-26T13:58:45.643Z,5.17
2019-04-26T14:01:18.781Z,6.70
2019-04-26T14:03:50.323Z,6.12
2019-04-26T14:06:20.806Z,6.00
2019-04-26T14:08:53.947Z,5.22
2019-04-26T14:11:28.162Z,4.53
2019-04-26T14:14:00.182Z,4.78
2019-04-26T14:16:28.041Z,7.03
2019-04-26T14:18:58.416Z,6.65
2019-04-26T14:21:29.150Z,8.58
2019-04-26T14:24:19.532Z,18.57
2019-04-26T14:26:55.135Z,7.67
2019-04-26T14:29:28.589Z,6.60
2019-04-26T14:31:58.058Z,5.42
2019-04-26T14:34:28.433Z,4.83
2019-04-26T14:37:06.307Z,5.15
2019-04-26T14:39:49.272Z,5.50
2019-04-26T14:42:03.151Z,5.83
2019-04-26T14:44:33.658Z,5.50
2019-04-26T14:47:13.839Z,7.03
2019-04-26T14:49:39.550Z,5.92
2019-04-26T14:52:08.074Z,5.85
2019-04-26T14:54:41.404Z,4.70
2019-04-26T14:57:15.566Z,5.72
2019-04-26T14:59:57.495Z,6.35
2019-04-26T15:02:50.222Z,5.42
2019-04-26T15:05:46.295Z,6.00
2019-04-26T15:08:14.926Z,5.08
2019-04-26T15:10:48.816Z,5.97
2019-04-26T15:13:20.719Z,5.55
2019-04-26T15:15:49.892Z,5.15
2019-04-26T15:18:20.288Z,5.47
2019-04-26T15:20:53.174Z,5.15
2019-04-26T15:23:23.827Z,5.78
2019-04-26T15:25:54.742Z,5.85
2019-04-26T15:28:25.140Z,4.95
2019-04-26T15:30:55.526Z,6.35
2019-04-26T15:33:26.013Z,5.87
2019-04-26T15:35:56.336Z,6.25
2019-04-26T15:38:28.162Z,5.20
2019-04-26T15:41:16.961Z,5.65
2019-04-26T15:43:58.032Z,6.95
2019-04-26T15:46:53.779Z,4.55
2019-04-26T15:49:36.529Z,5.42
2019-04-26T15:52:05.804Z,6.03
2019-04-26T15:54:36.284Z,5.40
2019-04-26T15:57:06.781Z,8.08
2019-04-26T15:59:38.218Z,6.03
2019-04-26T16:02:09.094Z,6.00
2019-04-26T16:04:39.550Z,7.67
2019-04-26T16:07:10.024Z,6.40
2019-04-26T16:09:42.399Z,6.40
2019-04-26T16:12:13.475Z,6.97
2019-04-26T16:14:44.092Z,7.80
2019-04-26T16:17:15.340Z,8.30
2019-04-26T16:19:45.832Z,7.03
2019-04-26T16:22:16.564Z,5.37
2019-04-26T16:24:47.316Z,7.85
2019-04-26T16:27:18.196Z,6.00
2019-04-26T16:30:09.565Z,8.50
2019-04-26T16:32:58.687Z,7.28
2019-04-26T16:35:28.293Z,7.40
2019-04-26T16:38:02.235Z,6.83
2019-04-26T16:40:32.954Z,6.10
2019-04-26T16:43:04.227Z,6.40
2019-04-26T16:45:37.205Z,6.28
2019-04-26T16:48:07.282Z,6.28
2019-04-26T16:50:44.349Z,5.78
2019-04-26T16:53:36.449Z,6.15
2019-04-26T16:55:50.540Z,5.80
2019-04-26T16:58:14.744Z,7.20
2019-04-26T17:00:51.715Z,6.42
2019-04-26T17:03:17.968Z,6.35
2019-04-26T17:05:51.676Z,6.03
2019-04-26T17:08:20.542Z,5.67
2019-04-26T17:10:56.347Z,7.55
2019-04-26T17:13:23.992Z,5.80
2019-04-26T17:15:58.151Z,5.97
2019-04-26T17:18:27.198Z,6.53
2019-04-26T17:20:57.892Z,6.33
2019-04-26T17:23:56.186Z,7.42
2019-04-26T17:26:33.758Z,18.10
2019-04-26T17:29:02.566Z,7.00
2019-04-26T17:31:33.723Z,6.20
2019-04-26T17:34:05.219Z,6.25
2019-04-26T17:36:35.954Z,6.30
2019-04-26T17:39:10.919Z,6.35
2019-04-26T17:41:43.241Z,6.95
2019-04-26T17:44:14.242Z,7.15
2019-04-26T17:46:48.964Z,6.78
2019-04-26T17:49:21.447Z,6.20
2019-04-26T17:51:51.698Z,6.22
2019-04-26T17:54:41.118Z,6.60
2019-04-26T17:56:53.355Z,5.67
2019-04-26T17:59:33.512Z,8.00
2019-04-26T18:02:00.813Z,6.45
2019-04-26T18:04:34.351Z,7.30
2019-04-26T18:07:03.802Z,6.08
2019-04-26T18:09:43.233Z,6.72
2019-04-26T18:12:07.042Z,7.25
2019-04-26T18:14:37.812Z,6.60
2019-04-26T18:17:19.371Z,23.27
2019-04-26T18:20:00.559Z,7.67
2019-04-26T18:22:36.359Z,7.58
2019-04-26T18:25:11.172Z,9.58
2019-04-26T18:27:40.098Z,6.92
2019-04-26T18:30:12.267Z,7.55
2019-04-26T18:32:47.791Z,7.80
2019-04-26T18:35:16.943Z,6.92
2019-04-26T18:37:47.653Z,7.78
2019-04-26T18:40:20.591Z,6.67
2019-04-26T18:42:53.060Z,7.55
2019-04-26T18:45:28.747Z,7.28
2019-04-26T18:48:01.428Z,7.40
2019-04-26T18:50:32.770Z,6.80
2019-04-26T18:53:30.720Z,7.83
2019-04-26T18:56:03.387Z,7.30
2019-04-26T18:58:37.903Z,7.37
2019-04-26T19:01:09.158Z,7.30
2019-04-26T19:03:39.687Z,6.92
2019-04-26T19:06:10.256Z,9.93
2019-04-26T19:08:47.837Z,7.85
2019-04-26T19:11:13.019Z,6.97
2019-04-26T19:14:06.329Z,9.73
2019-04-26T19:16:46.481Z,7.53
2019-04-26T19:19:33.948Z,8.45
2019-04-26T19:22:05.048Z,8.05
2019-04-26T19:24:38.414Z,7.35
2019-04-26T19:27:07.570Z,9.30
2019-04-26T19:29:38.158Z,10.03
2019-04-26T19:32:08.650Z,10.13
2019-04-26T19:34:39.016Z,9.15
2019-04-26T19:37:09.544Z,8.35
2019-04-26T19:39:39.938Z,8.05
2019-04-26T19:42:11.852Z,10.00
2019-04-26T19:44:42.442Z,7.37
2019-04-26T19:47:35.372Z,7.25
2019-04-26T19:50:31.964Z,7.20
2019-04-26T19:53:10.331Z,8.28
2019-04-26T19:56:01.667Z,8.33
2019-04-26T19:58:33.806Z,7.60
2019-04-26T20:01:04.821Z,6.83
2019-04-26T20:03:35.304Z,7.97
2019-04-26T20:06:05.776Z,8.15
2019-04-26T20:08:43.933Z,7.53
2019-04-26T20:11:12.799Z,8.48
2019-04-26T20:13:42.566Z,7.50
2019-04-26T20:16:13.844Z,10.13
2019-04-26T20:18:44.431Z,8.15
2019-04-26T20:21:17.113Z,8.75
2019-04-26T20:23:47.728Z,8.18
2019-04-26T20:26:18.306Z,6.58
2019-04-26T20:28:48.716Z,7.30
2019-04-26T20:31:37.656Z,6.87
2019-04-26T20:34:10.787Z,8.08
2019-04-26T20:36:41.555Z,10.55
2019-04-26T20:39:12.449Z,11.68
2019-04-26T20:41:42.880Z,9.18
2019-04-26T20:44:13.253Z,6.58
2019-04-26T20:46:43.701Z,7.87
2019-04-26T20:49:14.128Z,8.05
2019-04-26T20:51:46.245Z,8.03
2019-04-26T20:54:17.430Z,8.08
2019-04-26T20:56:52.546Z,8.15
2019-04-26T20:59:23.402Z,10.58
2019-04-26T21:02:03.284Z,8.45
2019-04-26T21:04:36.893Z,9.05
2019-04-26T21:06:57.121Z,8.10
2019-04-26T21:09:27.893Z,8.90
2019-04-26T21:11:58.422Z,23.77
2019-04-26T21:14:28.880Z,9.50
2019-04-26T21:16:59.379Z,8.35
2019-04-26T21:19:32.702Z,8.70
2019-04-26T21:22:02.679Z,8.03
2019-04-26T21:24:36.932Z,9.98
2019-04-26T21:27:35.754Z,9.30
2019-04-26T21:30:33.657Z,9.48
2019-04-26T21:33:21.786Z,9.33
2019-04-26T21:36:13.716Z,9.60
2019-04-26T21:38:52.987Z,8.50
2019-04-26T21:41:26.131Z,8.38
2019-04-26T21:43:56.548Z,9.45
2019-04-26T21:46:28.855Z,9.55
2019-04-26T21:48:58.995Z,7.87
2019-04-26T21:51:29.388Z,8.98
2019-04-26T21:53:59.840Z,10.03
2019-04-26T21:56:31.614Z,7.67
2019-04-26T21:59:04.722Z,8.73
2019-04-26T22:01:35.683Z,10.82
2019-04-26T22:04:07.898Z,10.13
2019-04-26T22:06:39.633Z,9.05
2019-04-26T22:09:28.590Z,8.18
2019-04-26T22:11:57.993Z,8.35
2019-04-26T22:14:31.035Z,10.10
2019-04-26T22:17:09.586Z,10.38
2019-04-26T22:20:12.536Z,8.50
2019-04-26T22:22:59.213Z,9.65
2019-04-26T22:25:33.174Z,9.63
2019-04-26T22:28:03.868Z,9.38
2019-04-26T22:30:34.181Z,9.38
2019-04-26T22:33:04.562Z,7.70
2019-04-26T22:35:34.920Z,8.40
2019-04-26T22:38:05.279Z,8.88
2019-04-26T22:40:36.376Z,9.83
2019-04-26T22:43:20.214Z,9.53
2019-04-26T22:45:54.659Z,9.10
2019-04-26T22:48:36.724Z,10.43
2019-04-26T22:51:08.342Z,10.25
2019-04-26T22:53:39.481Z,9.03
2019-04-26T22:56:09.859Z,12.45
2019-04-26T22:58:40.274Z,10.08
2019-04-26T23:01:10.787Z,10.23
2019-04-26T23:03:44.945Z,10.38
2019-04-26T23:06:15.302Z,9.48
2019-04-26T23:08:45.872Z,10.48
2019-04-26T23:11:16.296Z,11.48
2019-04-26T23:14:17.767Z,9.80
2019-04-26T23:17:11.562Z,9.93
2019-04-26T23:19:45.457Z,10.15
2019-04-26T23:22:15.879Z,10.95
2019-04-26T23:24:49.205Z,10.88
2019-04-26T23:27:20.493Z,10.10
2019-04-26T23:29:55.119Z,9.48
2019-04-26T23:32:23.469Z,10.72
2019-04-26T23:34:58.312Z,11.30
2019-04-26T23:37:27.790Z,10.75
2019-04-26T23:39:58.249Z,9.93
2019-04-26T23:42:28.687Z,11.22
2019-04-26T23:44:59.229Z,10.75
2019-04-26T23:47:31.943Z,11.25
2019-04-26T23:50:01.651Z,12.18
2019-04-26T23:52:33.251Z,10.75
2019-04-26T23:55:07.286Z,11.10
2019-04-26T23:57:36.401Z,12.53
